NCAR-RAP Real-Time Weather Data

Output produced by METARs form (18 August 2018  01:02 UTC)
found at http://weather.rap.ucar.edu/surface/
 
RJNK 180000Z VRB02KT 9999 FEW030 SCT300 23/13 Q1013
RJNK 172300Z VRB02KT 9999 FEW030 BKN250 21/13 Q1013
RJNK 172200Z VRB02KT 9999 FEW030 BKN250 18/14 Q1013
RJNK 172100Z 11003KT 080V140 9999 FEW030 BKN250 16/13 Q1013
RJNK 172000Z 15003KT 9999 FEW030 BKN/// 16/13 Q1012
RJNK 171900Z 14004KT 9999 FEW030 SCT/// 17/14 Q1012
RJNK 171800Z 11003KT 080V150 9999 FEW030 SCT/// 17/14 Q1012
RJNK 171700Z 03011KT 9999 FEW030 20/14 Q1012
RJNK 171600Z 03011KT 9999 FEW030 20/14 Q1012
RJNK 171500Z 03012KT 9999 FEW030 20/14 Q1013
RJNK 171400Z 04009KT 9999 FEW030 SCT/// 20/14 Q1013
RJNK 171300Z 05006KT 9999 FEW030 BKN/// 20/15 Q1013
RJNK 171200Z 05005KT 9999 FEW030 BKN/// 21/15 Q1013
RJNK 171100Z 05009KT 9999 FEW030 BKN/// 21/14 Q1013
RJNK 171000Z 05012KT 9999 FEW030 BKN250 22/14 Q1012
RJNK 170900Z 05013KT 9999 FEW030 SCT250 24/14 Q1012
RJNK 170800Z 06015KT 9999 FEW030 SCT050 25/13 Q1011
RJNK 170700Z 03015KT 9999 FEW030 SCT050 27/13 Q1011
RJNK 170600Z 05016KT 9999 FEW030 SCT050 27/09 Q1011
RJNK 170500Z 01016KT 9999 FEW030 SCT050 27/15 Q1012
RJNK 170400Z 04012KT 010V070 9999 FEW030 SCT050 27/12 Q1012
RJNK 170300Z 01014KT 9999 FEW030 SCT050 26/14 Q1012
RJNK 170200Z 03014KT 9999 FEW030 SCT050 25/13 Q1013
RJNK 170100Z 05014KT 9999 FEW030 26/12 Q1013
RJNK 170000Z 05014KT 9999 FEW030 25/09 Q1013
RJNK 162300Z 04016KT 9999 FEW030 23/04 Q1013
RJNK 162200Z 03012KT 9999 FEW030 21/10 Q1013
RJNK 162100Z 05009KT 9999 FEW030 20/12 Q1012
RJNK 162000Z 05006KT 9999 FEW030 SCT070 19/16 Q1011
RJNK 161900Z 04008KT 9999 FEW030 20/17 Q1011
RJNK 161800Z 05010KT 9999 SCT030 20/16 Q1011
RJNK 161700Z 05008KT 9999 -SHRA FEW008 SCT015 BKN030 21/19 Q1011
RJNK 161600Z 05006KT 9999 SCT015 BKN030 22/20 Q1011
RJNK 161500Z 05004KT 7000 -SHRA SCT015 BKN030 22/22 Q1011
RJNK 161400Z 13005KT 9999 FEW015 BKN030 22/22 Q1011
RJNK 161300Z 10003KT 060V120 9999 FEW005 BKN025 23/22 Q1011
RJNK 161200Z 06003KT 9999 -SHRA FEW005 BKN015 23/23 Q1011
RJNK 161100Z 20002KT 9999 FEW005 SCT015 BKN020 23/23 Q1010
RJNK 161000Z 18003KT 9999 -SHRA FEW003 SCT005 BKN015 23/23 Q1009
RJNK 160900Z 13005KT 8000 -SHRA FEW003 SCT005 BKN015 22/22 Q1008
RJNK 160800Z 05005KT 050V110 8000 -SHRA FEW003 SCT005 BKN015 SCT020CB 23/22 Q1007 RETS
RJNK 160700Z 04007KT 9999 -TSRA FEW003 SCT015 BKN020 FEW020CB 23/22 Q1006
RJNK 160600Z 03004KT 360V070 8000 -SHRA FEW003 SCT005 BKN008 22/22 Q1007 RETS
RJNK 160500Z 09011KT 8000 -TSRA FEW003 BKN005 BKN008 FEW020CB 22/22 Q1007
RJNK 160400Z 35013KT 9000 -SHRA FEW003 SCT005 BKN008 SCT020TCU 23/22 Q1008
RJNK 160300Z 25012KT 9000 -SHRA FEW003 SCT005 BKN020 26/25 Q1008 RETS
RJNK 160200Z 21007KT 9999 -SHRA SCT030 BKN050 BKN120 29/19 Q1007
RJNK 160100Z 21016KT 8000 -SHRA SCT030 BKN050 BKN120 29/18 Q1007
RJNK 160000Z 21017KT 9999 FEW030 SCT080 BKN120 33/15 Q1007
RJNK 152300Z 20014KT 9999 FEW030 SCT080 BKN150 31/15 Q1007
RJNK 152200Z 21011KT 9999 FEW030 BKN080 BKN150 30/16 Q1007
RJNK 152100Z 21011KT 9999 FEW030 BKN080 BKN150 30/16 Q1007
RJNK 152000Z 21010KT 9999 FEW030 SCT080 BKN150 29/16 Q1007
RJNK 151900Z 22007KT 9999 FEW030 SCT080 BKN150 30/16 Q1007
RJNK 151800Z 22007KT 9999 FEW030 BKN080 29/17 Q1007
RJNK 151700Z 22006KT 9999 FEW030 BKN080 BKN130 30/16 Q1008
RJNK 151600Z 23004KT 9999 FEW030 BKN080 BKN150 29/17 Q1008
RJNK 151500Z 21003KT 9999 FEW030 SCT080 BKN150 29/17 Q1009
RJNK 151400Z 21004KT 9999 FEW030 BKN150 29/17 Q1009